createdAt,value
2017-07-21T00:00:09.330Z,20.3
2017-07-21T00:00:19.328Z,20.4
2017-07-21T00:00:29.323Z,20.3
2017-07-21T00:00:39.323Z,20.3
2017-07-21T00:00:49.311Z,20.3
2017-07-21T00:00:59.313Z,20.3
2017-07-21T00:01:09.305Z,20.3
2017-07-21T00:01:19.301Z,20.3
2017-07-21T00:01:29.298Z,20.3
2017-07-21T00:01:39.289Z,20.3
2017-07-21T00:01:49.288Z,20.4
2017-07-21T00:01:59.281Z,20.2
2017-07-21T00:02:09.275Z,20.3
2017-07-21T00:02:19.268Z,20.3
2017-07-21T00:02:29.268Z,20.3
2017-07-21T00:02:39.259Z,20.3
2017-07-21T00:02:49.263Z,20.3
2017-07-21T00:02:59.250Z,20.3
2017-07-21T00:03:09.243Z,20.3
2017-07-21T00:03:19.243Z,20.3
2017-07-21T00:03:29.237Z,20.3
2017-07-21T00:03:39.231Z,20.2
2017-07-21T00:03:49.225Z,20.3
2017-07-21T00:03:59.221Z,20.3
2017-07-21T00:04:09.220Z,20.2
2017-07-21T00:04:19.212Z,20.3
2017-07-21T00:04:29.204Z,20.3
2017-07-21T00:04:39.202Z,20.4
2017-07-21T00:04:49.200Z,20.3
2017-07-21T00:04:59.194Z,20.3
2017-07-21T00:05:09.189Z,20.3
2017-07-21T00:05:19.182Z,20.3
2017-07-21T00:05:29.177Z,20.3
2017-07-21T00:05:39.171Z,20.3
2017-07-21T00:05:49.167Z,20.3
2017-07-21T00:05:59.159Z,20.3
2017-07-21T00:06:09.156Z,20.3
2017-07-21T00:06:19.150Z,20.3
2017-07-21T00:06:29.150Z,20.3
2017-07-21T00:06:39.142Z,20.3
2017-07-21T00:06:49.139Z,20.3
2017-07-21T00:06:59.130Z,20.3
2017-07-21T00:07:09.125Z,20.3
2017-07-21T00:07:19.125Z,20.2
2017-07-21T00:07:29.116Z,20.2
2017-07-21T00:07:39.115Z,20.3
2017-07-21T00:07:49.107Z,20.2
2017-07-21T00:07:59.105Z,20.3
2017-07-21T00:08:09.097Z,20.3
2017-07-21T00:08:19.094Z,20.3
2017-07-21T00:08:29.089Z,20.3
2017-07-21T00:08:39.084Z,20.3
2017-07-21T00:08:49.079Z,20.2
2017-07-21T00:08:59.077Z,20.2
2017-07-21T00:09:09.069Z,20.3
2017-07-21T00:09:19.067Z,20.2
2017-07-21T00:09:29.059Z,20.2
2017-07-21T00:09:39.052Z,20.2
2017-07-21T00:09:49.050Z,20.2
2017-07-21T00:09:59.043Z,20.2
2017-07-21T00:10:09.037Z,20.2
2017-07-21T00:10:19.035Z,20.2
2017-07-21T00:10:29.033Z,20.3
2017-07-21T00:10:39.026Z,20.3
2017-07-21T00:10:49.027Z,20.2
2017-07-21T00:10:59.015Z,20.2
2017-07-21T00:11:09.012Z,20.3
2017-07-21T00:11:19.003Z,20.2
2017-07-21T00:11:29.001Z,20.2
2017-07-21T00:11:38.998Z,20.3
2017-07-21T00:11:48.993Z,20.2
2017-07-21T00:11:58.990Z,20.2
2017-07-21T00:12:08.984Z,20.2
2017-07-21T00:12:18.979Z,20.2
2017-07-21T00:12:28.970Z,20.2
2017-07-21T00:12:38.968Z,20.2
2017-07-21T00:12:48.959Z,20.2
2017-07-21T00:12:58.959Z,20.2
2017-07-21T00:13:08.951Z,20.2
2017-07-21T00:13:18.949Z,20.3
2017-07-21T00:13:28.942Z,20.2
2017-07-21T00:13:38.938Z,20.2
2017-07-21T00:13:48.934Z,20.2
2017-07-21T00:13:58.931Z,20.2
2017-07-21T00:14:08.923Z,20.2
2017-07-21T00:14:18.916Z,20.3
2017-07-21T00:14:28.912Z,20.2
2017-07-21T00:14:38.910Z,20.2
2017-07-21T00:14:48.903Z,20.2
2017-07-21T00:14:58.898Z,20.2
2017-07-21T00:15:08.893Z,20.2
2017-07-21T00:15:18.890Z,20.2
2017-07-21T00:15:28.883Z,20.2
2017-07-21T00:15:38.878Z,20.2
2017-07-21T00:15:48.875Z,20.2
2017-07-21T00:15:58.871Z,20.2
2017-07-21T00:16:08.864Z,20.2
2017-07-21T00:16:18.855Z,20.2
2017-07-21T00:16:28.854Z,20.2
2017-07-21T00:16:38.847Z,20.1
2017-07-21T00:16:48.847Z,20.2
2017-07-21T00:16:58.843Z,20.1
2017-07-21T00:17:08.834Z,20.2
2017-07-21T00:17:18.833Z,20.1
2017-07-21T00:17:28.824Z,20.2
2017-07-21T00:17:38.817Z,20.2
2017-07-21T00:17:48.814Z,20.1
2017-07-21T00:17:58.812Z,20.2
2017-07-21T00:18:08.803Z,20.2
2017-07-21T00:18:18.797Z,20.2
2017-07-21T00:18:28.796Z,20.2
2017-07-21T00:18:38.790Z,20.2
2017-07-21T00:18:48.783Z,20.1
2017-07-21T00:18:58.779Z,20.1
2017-07-21T00:19:08.775Z,20.1
2017-07-21T00:19:18.772Z,20.1
2017-07-21T00:19:28.763Z,20.1
2017-07-21T00:19:38.763Z,20.1
2017-07-21T00:19:48.755Z,20
2017-07-21T00:19:58.749Z,20.1
2017-07-21T00:20:08.748Z,20.1
2017-07-21T00:20:18.741Z,20.1
2017-07-21T00:20:28.736Z,20.1
2017-07-21T00:20:38.735Z,20.2
2017-07-21T00:20:48.727Z,20.1
2017-07-21T00:20:58.723Z,20.1
2017-07-21T00:21:08.719Z,20.1
2017-07-21T00:21:18.711Z,20.2
2017-07-21T00:21:28.704Z,20.1
2017-07-21T00:21:38.701Z,20.1
2017-07-21T00:21:48.697Z,20.1
2017-07-21T00:21:58.695Z,20
2017-07-21T00:22:08.686Z,20.1
2017-07-21T00:22:18.680Z,20.2
2017-07-21T00:22:28.677Z,20.2
2017-07-21T00:22:38.669Z,20.1
2017-07-21T00:22:48.665Z,19.9
2017-07-21T00:22:58.662Z,20.1
2017-07-21T00:23:08.655Z,20.1
2017-07-21T00:23:18.654Z,20.1
2017-07-21T00:23:28.646Z,20.1
2017-07-21T00:23:38.643Z,20.1
2017-07-21T00:23:48.637Z,20.1
2017-07-21T00:23:58.630Z,20
2017-07-21T00:24:08.628Z,20.1
2017-07-21T00:24:18.623Z,20
2017-07-21T00:24:28.620Z,19.9
2017-07-21T00:24:38.622Z,20.1
2017-07-21T00:24:48.606Z,20
2017-07-21T00:24:58.603Z,20.1
2017-07-21T00:25:08.595Z,20.1
2017-07-21T00:25:18.595Z,20
2017-07-21T00:25:28.588Z,20.1
2017-07-21T00:25:38.584Z,20
2017-07-21T00:25:48.580Z,20.1
2017-07-21T00:25:58.575Z,20.1
2017-07-21T00:26:08.571Z,19.9
2017-07-21T00:26:18.561Z,20.1
2017-07-21T00:26:28.558Z,19.9
2017-07-21T00:26:38.559Z,20
2017-07-21T00:26:48.551Z,20
2017-07-21T00:26:58.543Z,19.9
2017-07-21T00:27:08.541Z,20
2017-07-21T00:27:18.533Z,19.9
2017-07-21T00:27:28.529Z,19.9
2017-07-21T00:27:38.525Z,19.9
2017-07-21T00:27:48.519Z,19.9
2017-07-21T00:27:58.518Z,19.9
2017-07-21T00:28:08.514Z,19.9
2017-07-21T00:28:18.505Z,20
2017-07-21T00:28:28.498Z,19.9
2017-07-21T00:28:38.499Z,20
2017-07-21T00:28:48.492Z,20
2017-07-21T00:28:58.488Z,19.9
2017-07-21T00:29:08.480Z,19.9
2017-07-21T00:29:18.478Z,19.9
2017-07-21T00:29:28.471Z,20
2017-07-21T00:29:38.466Z,19.9
2017-07-21T00:29:48.459Z,19.9
2017-07-21T00:29:58.455Z,20
2017-07-21T00:30:08.451Z,19.9
2017-07-21T00:30:18.445Z,19.9
2017-07-21T00:30:28.441Z,20
2017-07-21T00:30:38.436Z,20
2017-07-21T00:30:48.434Z,19.8
2017-07-21T00:30:58.428Z,20
2017-07-21T00:31:08.424Z,19.9
2017-07-21T00:31:18.415Z,19.9
2017-07-21T00:31:28.412Z,19.9
2017-07-21T00:31:38.407Z,19.9
2017-07-21T00:31:48.403Z,19.9
2017-07-21T00:31:58.397Z,19.9
2017-07-21T00:32:08.393Z,19.9
2017-07-21T00:32:18.387Z,19.9
2017-07-21T00:32:28.382Z,19.9
2017-07-21T00:32:38.378Z,19.9
2017-07-21T00:32:48.372Z,19.9
2017-07-21T00:32:58.368Z,19.9
2017-07-21T00:33:08.358Z,20
2017-07-21T00:33:18.358Z,19.9
2017-07-21T00:33:28.355Z,20
2017-07-21T00:33:38.345Z,19.9
2017-07-21T00:33:48.341Z,20
2017-07-21T00:33:58.340Z,20
2017-07-21T00:34:08.332Z,19.9
2017-07-21T00:34:18.327Z,19.9
2017-07-21T00:34:28.325Z,19.9
2017-07-21T00:34:38.317Z,19.9
2017-07-21T00:34:48.313Z,19.8
2017-07-21T00:34:58.308Z,19.9
2017-07-21T00:35:08.302Z,19.9
2017-07-21T00:35:18.295Z,19.9
2017-07-21T00:35:28.293Z,19.9
2017-07-21T00:35:38.289Z,19.9
2017-07-21T00:35:48.283Z,19.9
2017-07-21T00:35:58.276Z,19.9
2017-07-21T00:36:08.275Z,19.9
2017-07-21T00:36:18.269Z,19.9
2017-07-21T00:36:28.264Z,19.9
2017-07-21T00:36:38.263Z,19.9
2017-07-21T00:36:48.255Z,19.9
2017-07-21T00:36:58.249Z,19.8
2017-07-21T00:37:08.243Z,19.9
2017-07-21T00:37:18.241Z,19.9
2017-07-21T00:37:28.232Z,19.8
2017-07-21T00:37:38.228Z,19.8
2017-07-21T00:37:48.227Z,19.8
2017-07-21T00:37:58.219Z,19.9
2017-07-21T00:38:08.214Z,19.9
2017-07-21T00:38:18.210Z,19.9
2017-07-21T00:38:28.212Z,19.9
2017-07-21T00:38:38.197Z,19.8
2017-07-21T00:38:48.195Z,19.9
2017-07-21T00:38:58.187Z,19.8
2017-07-21T00:39:08.188Z,19.9
2017-07-21T00:39:18.181Z,19.9
2017-07-21T00:39:28.175Z,19.9
2017-07-21T00:39:38.174Z,19.9
2017-07-21T00:39:48.167Z,19.9
2017-07-21T00:39:58.164Z,19.9
2017-07-21T00:40:08.156Z,19.8
2017-07-21T00:40:18.148Z,19.8
2017-07-21T00:40:28.148Z,19.8
2017-07-21T00:40:38.141Z,19.9
2017-07-21T00:40:48.139Z,19.8
2017-07-21T00:40:58.129Z,19.9
2017-07-21T00:41:08.124Z,19.9
2017-07-21T00:41:18.121Z,19.8
2017-07-21T00:41:28.114Z,19.8
2017-07-21T00:41:38.109Z,19.8
2017-07-21T00:41:48.108Z,19.8
2017-07-21T00:41:58.101Z,19.9
2017-07-21T00:42:08.096Z,19.9
2017-07-21T00:42:18.089Z,19.9
2017-07-21T00:42:28.089Z,19.9
2017-07-21T00:42:38.081Z,19.8
2017-07-21T00:42:48.077Z,19.8
2017-07-21T00:42:58.068Z,19.8
2017-07-21T00:43:08.070Z,19.8
2017-07-21T00:43:18.062Z,19.8
2017-07-21T00:43:28.060Z,19.7
2017-07-21T00:43:38.054Z,19.8
2017-07-21T00:43:48.044Z,19.8
2017-07-21T00:43:58.043Z,19.8
2017-07-21T00:44:08.035Z,19.9
2017-07-21T00:44:18.033Z,19.8
2017-07-21T00:44:28.029Z,19.8
2017-07-21T00:44:38.022Z,19.8
2017-07-21T00:44:48.017Z,19.9
2017-07-21T00:44:58.014Z,19.8
2017-07-21T00:45:08.010Z,19.8
2017-07-21T00:45:17.999Z,19.9
2017-07-21T00:45:27.995Z,19.7
2017-07-21T00:45:37.996Z,19.8
2017-07-21T00:45:47.987Z,19.8
2017-07-21T00:45:57.982Z,19.8
2017-07-21T00:46:07.979Z,19.8
2017-07-21T00:46:17.972Z,19.8
2017-07-21T00:46:27.969Z,19.8
2017-07-21T00:46:37.967Z,19.8
2017-07-21T00:46:47.959Z,19.8
2017-07-21T00:46:57.953Z,19.8
2017-07-21T00:47:07.953Z,19.8
2017-07-21T00:47:17.944Z,19.8
2017-07-21T00:47:27.937Z,19.8
2017-07-21T00:47:37.932Z,19.8
2017-07-21T00:47:47.930Z,19.8
2017-07-21T00:47:57.925Z,19.8
2017-07-21T00:48:07.921Z,19.8
2017-07-21T00:48:17.909Z,19.8
2017-07-21T00:48:27.905Z,19.8
2017-07-21T00:48:37.904Z,19.8
2017-07-21T00:48:47.899Z,19.7
2017-07-21T00:48:57.897Z,19.8
2017-07-21T00:49:07.888Z,19.8
2017-07-21T00:49:17.885Z,19.8
2017-07-21T00:49:27.883Z,19.7
2017-07-21T00:49:37.874Z,19.7
2017-07-21T00:49:47.869Z,19.8
2017-07-21T00:49:57.864Z,19.7
2017-07-21T00:50:07.859Z,19.7
2017-07-21T00:50:17.852Z,19.8
2017-07-21T00:50:27.852Z,19.7
2017-07-21T00:50:37.847Z,19.8
2017-07-21T00:50:47.843Z,19.7
2017-07-21T00:50:57.831Z,19.7
2017-07-21T00:51:07.831Z,19.7
2017-07-21T00:51:17.822Z,19.6
2017-07-21T00:51:27.822Z,19.7
2017-07-21T00:51:37.815Z,19.7
2017-07-21T00:51:47.806Z,19.6
2017-07-21T00:51:57.805Z,19.6
2017-07-21T00:52:07.804Z,19.8
2017-07-21T00:52:17.798Z,19.8
2017-07-21T00:52:27.792Z,19.7
2017-07-21T00:52:37.789Z,19.8
2017-07-21T00:52:47.780Z,19.7
2017-07-21T00:52:57.776Z,19.7
2017-07-21T00:53:07.770Z,19.8
2017-07-21T00:53:17.768Z,19.7
2017-07-21T00:53:27.761Z,19.6
2017-07-21T00:53:37.752Z,19.6
2017-07-21T00:53:47.771Z,19.7
2017-07-21T00:53:57.746Z,19.7
2017-07-21T00:54:07.740Z,19.6
2017-07-21T00:54:17.736Z,19.7
2017-07-21T00:54:27.728Z,19.6
2017-07-21T00:54:37.728Z,19.7
2017-07-21T00:54:47.721Z,19.7
2017-07-21T00:54:57.717Z,19.7
2017-07-21T00:55:07.712Z,19.7
2017-07-21T00:55:17.709Z,19.7
2017-07-21T00:55:27.705Z,19.7
2017-07-21T00:55:37.700Z,19.6
2017-07-21T00:55:47.690Z,19.7
2017-07-21T00:55:57.683Z,19.6
2017-07-21T00:56:07.684Z,19.7
2017-07-21T00:56:17.677Z,19.7
2017-07-21T00:56:27.673Z,19.7
2017-07-21T00:56:37.668Z,19.7
2017-07-21T00:56:47.661Z,19.6
2017-07-21T00:56:57.655Z,19.7
2017-07-21T00:57:07.653Z,19.6
2017-07-21T00:57:17.643Z,19.7
2017-07-21T00:57:27.649Z,19.6
2017-07-21T00:57:37.637Z,19.7
2017-07-21T00:57:47.631Z,19.7
2017-07-21T00:57:57.632Z,19.6
2017-07-21T00:58:07.622Z,19.6
2017-07-21T00:58:17.618Z,19.6
2017-07-21T00:58:27.615Z,19.6
2017-07-21T00:58:37.609Z,19.6
2017-07-21T00:58:47.602Z,19.6
2017-07-21T00:58:57.592Z,19.6
2017-07-21T00:59:07.590Z,19.6
2017-07-21T00:59:17.587Z,19.6
2017-07-21T00:59:27.582Z,19.6
2017-07-21T00:59:37.581Z,19.6
2017-07-21T00:59:47.568Z,19.7
2017-07-21T00:59:57.571Z,19.7
2017-07-21T01:00:07.563Z,19.6
2017-07-21T01:00:17.557Z,19.7
2017-07-21T01:00:27.550Z,19.6
2017-07-21T01:00:37.548Z,19.6
2017-07-21T01:00:47.540Z,19.6
2017-07-21T01:00:57.538Z,19.6
2017-07-21T01:01:07.535Z,19.6
2017-07-21T01:01:17.530Z,19.6
2017-07-21T01:01:27.521Z,19.6
2017-07-21T01:01:37.518Z,19.6
2017-07-21T01:01:47.510Z,19.6
2017-07-21T01:01:57.506Z,19.6
2017-07-21T01:02:07.502Z,19.6
2017-07-21T01:02:17.496Z,19.5
2017-07-21T01:02:27.489Z,19.5
2017-07-21T01:02:37.487Z,19.5
2017-07-21T01:02:47.483Z,19.6
2017-07-21T01:02:57.475Z,19.5
2017-07-21T01:03:07.473Z,19.6
2017-07-21T01:03:17.466Z,19.6
2017-07-21T01:03:27.464Z,19.6
2017-07-21T01:03:37.458Z,19.6
2017-07-21T01:03:47.453Z,19.5
2017-07-21T01:03:57.450Z,19.6
2017-07-21T01:04:07.447Z,19.5
2017-07-21T01:04:17.435Z,19.5
2017-07-21T01:04:27.436Z,19.5
2017-07-21T01:04:37.428Z,19.5
2017-07-21T01:04:47.425Z,19.5
2017-07-21T01:04:57.418Z,19.5
2017-07-21T01:05:07.415Z,19.5
2017-07-21T01:05:17.409Z,19.5
2017-07-21T01:05:27.405Z,19.6
2017-07-21T01:05:37.398Z,19.5
2017-07-21T01:05:47.393Z,19.5
2017-07-21T01:05:57.389Z,19.4
2017-07-21T01:06:07.387Z,19.4
2017-07-21T01:06:17.375Z,19.5
2017-07-21T01:06:27.373Z,19.4
2017-07-21T01:06:37.366Z,19.4
2017-07-21T01:06:47.367Z,19.5
2017-07-21T01:06:57.361Z,19.5
2017-07-21T01:07:07.354Z,19.5
2017-07-21T01:07:17.347Z,19.5
2017-07-21T01:07:27.341Z,19.4
2017-07-21T01:07:37.341Z,19.5
2017-07-21T01:07:47.336Z,19.5
2017-07-21T01:07:57.328Z,19.5
2017-07-21T01:08:07.321Z,19.5
2017-07-21T01:08:17.319Z,19.5
2017-07-21T01:08:27.314Z,19.5
2017-07-21T01:08:37.308Z,19.5
2017-07-21T01:08:47.307Z,19.5
2017-07-21T01:08:57.300Z,19.5
2017-07-21T01:09:07.292Z,19.5
2017-07-21T01:09:17.287Z,19.6
2017-07-21T01:09:27.285Z,19.5
2017-07-21T01:09:37.283Z,19.5
2017-07-21T01:09:47.278Z,19.5
2017-07-21T01:09:57.274Z,19.5
2017-07-21T01:10:07.262Z,19.5
2017-07-21T01:10:17.264Z,19.5
2017-07-21T01:10:27.256Z,19.5
2017-07-21T01:10:37.252Z,19.5
2017-07-21T01:10:47.243Z,19.5
2017-07-21T01:10:57.241Z,19.5
2017-07-21T01:11:07.232Z,19.5
2017-07-21T01:11:17.234Z,19.5
2017-07-21T01:11:27.222Z,19.5
2017-07-21T01:11:37.220Z,19.5
2017-07-21T01:11:47.213Z,19.6
2017-07-21T01:11:57.207Z,19.5
2017-07-21T01:12:07.202Z,19.5
2017-07-21T01:12:17.202Z,19.5
2017-07-21T01:12:27.197Z,19.5
2017-07-21T01:12:37.188Z,19.5
2017-07-21T01:12:47.185Z,19.5
2017-07-21T01:12:57.181Z,19.6
2017-07-21T01:13:07.175Z,19.5
2017-07-21T01:13:17.171Z,19.4
2017-07-21T01:13:27.163Z,19.5
2017-07-21T01:13:37.156Z,19.5
2017-07-21T01:13:47.154Z,19.5
2017-07-21T01:13:57.147Z,19.4
2017-07-21T01:14:07.146Z,19.5
2017-07-21T01:14:17.138Z,19.5
2017-07-21T01:14:27.133Z,19.5
2017-07-21T01:14:37.135Z,19.5
2017-07-21T01:14:47.126Z,19.4
2017-07-21T01:14:57.116Z,19.5
2017-07-21T01:15:07.116Z,19.4
2017-07-21T01:15:17.116Z,19.4
2017-07-21T01:15:27.103Z,19.4
2017-07-21T01:15:37.102Z,19.4
2017-07-21T01:15:47.095Z,19.4
2017-07-21T01:15:57.091Z,19.5
2017-07-21T01:16:07.090Z,19.3
2017-07-21T01:16:17.084Z,19.4
2017-07-21T01:16:27.074Z,19.4
2017-07-21T01:16:37.071Z,19.4
2017-07-21T01:16:47.068Z,19.4
2017-07-21T01:16:57.061Z,19.4
2017-07-21T01:17:07.052Z,19.4
2017-07-21T01:17:17.054Z,19.4
2017-07-21T01:17:27.046Z,19.4
2017-07-21T01:17:37.046Z,19.4
2017-07-21T01:17:47.036Z,19.4
2017-07-21T01:17:57.030Z,19.4
2017-07-21T01:18:07.025Z,19.3
2017-07-21T01:18:17.024Z,19.4
2017-07-21T01:18:27.016Z,19.4
2017-07-21T01:18:37.011Z,19.4
2017-07-21T01:18:47.007Z,19.4
2017-07-21T01:18:57.002Z,19.4
2017-07-21T01:19:06.998Z,19.4
2017-07-21T01:19:16.992Z,19.4
2017-07-21T01:19:26.985Z,19.3
2017-07-21T01:19:36.982Z,19.4
2017-07-21T01:19:46.979Z,19.4
2017-07-21T01:19:56.967Z,19.4
2017-07-21T01:20:06.967Z,19.4
2017-07-21T01:20:16.958Z,19.4
2017-07-21T01:20:26.954Z,19.5
2017-07-21T01:20:36.955Z,19.5
2017-07-21T01:20:46.948Z,19.5
2017-07-21T01:20:56.944Z,19.4
2017-07-21T01:21:06.936Z,19.4
2017-07-21T01:21:16.928Z,19.5
2017-07-21T01:21:26.929Z,19.5
2017-07-21T01:21:36.921Z,19.5
2017-07-21T01:21:46.917Z,19.4
2017-07-21T01:21:56.913Z,19.4
2017-07-21T01:22:06.927Z,19.4
2017-07-21T01:22:16.905Z,19.5
2017-07-21T01:22:26.894Z,19.4
2017-07-21T01:22:36.892Z,19.4
2017-07-21T01:22:46.887Z,19.4
2017-07-21T01:22:56.883Z,19.5
2017-07-21T01:23:06.873Z,19.4
2017-07-21T01:23:16.874Z,19.4
2017-07-21T01:23:26.867Z,19.5
2017-07-21T01:23:36.859Z,19.4
2017-07-21T01:23:46.857Z,19.4
2017-07-21T01:23:56.850Z,19.5
2017-07-21T01:24:06.845Z,19.4
2017-07-21T01:24:16.843Z,19.5
2017-07-21T01:24:26.837Z,19.5
2017-07-21T01:24:36.835Z,19.4
2017-07-21T01:24:46.830Z,19.5
2017-07-21T01:24:56.818Z,19.4
2017-07-21T01:25:06.819Z,19.4
2017-07-21T01:25:16.812Z,19.4
2017-07-21T01:25:26.811Z,19.4
2017-07-21T01:25:36.799Z,19.4
2017-07-21T01:25:46.797Z,19.4
2017-07-21T01:25:56.790Z,19.4
2017-07-21T01:26:06.784Z,19.4
2017-07-21T01:26:16.782Z,19.4
2017-07-21T01:26:26.774Z,19.4
2017-07-21T01:26:36.775Z,19.4
2017-07-21T01:26:46.767Z,19.4
2017-07-21T01:26:56.762Z,19.4
2017-07-21T01:27:06.761Z,19.4
2017-07-21T01:27:16.748Z,19.3
2017-07-21T01:27:26.744Z,19.4
2017-07-21T01:27:36.739Z,19.4
2017-07-21T01:27:46.737Z,19.4
2017-07-21T01:27:56.734Z,19.3
2017-07-21T01:28:06.727Z,19.3
2017-07-21T01:28:16.721Z,19.3
2017-07-21T01:28:26.717Z,19.4
2017-07-21T01:28:36.712Z,19.3
2017-07-21T01:28:46.704Z,19.3
2017-07-21T01:28:56.701Z,19.3
2017-07-21T01:29:06.697Z,19.2
2017-07-21T01:29:16.692Z,19.3
2017-07-21T01:29:26.687Z,19.3
2017-07-21T01:29:36.700Z,19.3
2017-07-21T01:29:46.678Z,19.3
2017-07-21T01:29:56.670Z,19.3
2017-07-21T01:30:06.670Z,19.3
2017-07-21T01:30:16.666Z,19.2
2017-07-21T01:30:26.653Z,19.2
2017-07-21T01:30:36.656Z,19.2
2017-07-21T01:30:46.647Z,19.3
2017-07-21T01:30:56.642Z,19.2
2017-07-21T01:31:06.640Z,19.2
2017-07-21T01:31:16.632Z,19.2
2017-07-21T01:31:26.627Z,19.2
2017-07-21T01:31:36.623Z,19.3
2017-07-21T01:31:46.620Z,19.3
2017-07-21T01:31:56.612Z,19.3
2017-07-21T01:32:06.610Z,19.2
2017-07-21T01:32:16.600Z,19.2
2017-07-21T01:32:26.597Z,19.2
2017-07-21T01:32:36.592Z,19.3
2017-07-21T01:32:46.589Z,19.3
2017-07-21T01:32:56.587Z,19.2
2017-07-21T01:33:06.577Z,19.3
2017-07-21T01:33:16.573Z,19.2
2017-07-21T01:33:26.570Z,19.2
2017-07-21T01:33:36.562Z,19.2
2017-07-21T01:33:46.554Z,19.2
2017-07-21T01:33:56.554Z,19.2
2017-07-21T01:34:06.551Z,19.2
2017-07-21T01:34:16.540Z,19.2
2017-07-21T01:34:26.536Z,19.2
2017-07-21T01:34:36.531Z,19.2
2017-07-21T01:34:46.529Z,19.2
2017-07-21T01:34:56.520Z,19.2
2017-07-21T01:35:06.580Z,19.2
2017-07-21T01:35:16.515Z,19.2
2017-07-21T01:35:26.510Z,19.2
2017-07-21T01:35:36.500Z,19.3
2017-07-21T01:35:46.498Z,19.2
2017-07-21T01:35:56.495Z,19.2
2017-07-21T01:36:06.488Z,19.2
2017-07-21T01:36:16.486Z,19.2
2017-07-21T01:36:26.477Z,19.3
2017-07-21T01:36:36.477Z,19.3
2017-07-21T01:36:46.470Z,19.2
2017-07-21T01:36:56.461Z,19.2
2017-07-21T01:37:06.457Z,19.2
2017-07-21T01:37:16.455Z,19.2
2017-07-21T01:37:26.447Z,19.2
2017-07-21T01:37:36.446Z,19.2
2017-07-21T01:37:46.436Z,19.3
2017-07-21T01:37:56.434Z,19.2
2017-07-21T01:38:06.428Z,19.3
2017-07-21T01:38:16.420Z,19.3
2017-07-21T01:38:26.420Z,19.2
2017-07-21T01:38:36.413Z,19.2
2017-07-21T01:38:46.412Z,19.2
2017-07-21T01:38:56.405Z,19.2
2017-07-21T01:39:06.401Z,19.2
2017-07-21T01:39:16.396Z,19.2
2017-07-21T01:39:26.388Z,19.2
2017-07-21T01:39:36.380Z,19.2
2017-07-21T01:39:46.379Z,19.2
2017-07-21T01:39:56.375Z,19.2
2017-07-21T01:40:06.372Z,19.3
2017-07-21T01:40:16.372Z,19.2
2017-07-21T01:40:26.360Z,19.2
2017-07-21T01:40:36.353Z,19.1
2017-07-21T01:40:46.345Z,19.2
2017-07-21T01:40:56.343Z,19.2
2017-07-21T01:41:06.340Z,19.2
2017-07-21T01:41:16.336Z,19.2
2017-07-21T01:41:26.332Z,19.2
2017-07-21T01:41:36.319Z,19.2
2017-07-21T01:41:46.322Z,19.2
2017-07-21T01:41:56.317Z,19.2
2017-07-21T01:42:06.304Z,19.2
2017-07-21T01:42:16.303Z,19.2
2017-07-21T01:42:26.298Z,19.2
2017-07-21T01:42:36.289Z,19.2
2017-07-21T01:42:46.292Z,19.1
2017-07-21T01:42:56.280Z,19.2
2017-07-21T01:43:06.279Z,19.2
2017-07-21T01:43:16.277Z,19.2
2017-07-21T01:43:26.268Z,19.1
2017-07-21T01:43:36.260Z,19.1
2017-07-21T01:43:46.259Z,19.1
2017-07-21T01:43:56.250Z,19.2
2017-07-21T01:44:06.248Z,19.2
2017-07-21T01:44:16.240Z,19.2
2017-07-21T01:44:26.239Z,19.1
2017-07-21T01:44:36.234Z,19.1
2017-07-21T01:44:46.231Z,19.2
2017-07-21T01:44:56.227Z,19.2
2017-07-21T01:45:06.217Z,19.2
2017-07-21T01:45:16.211Z,19.2
2017-07-21T01:45:26.208Z,19.1
2017-07-21T01:45:36.202Z,19.2
2017-07-21T01:45:46.196Z,19.2
2017-07-21T01:45:56.193Z,19.2
2017-07-21T01:46:06.185Z,19.2
2017-07-21T01:46:16.183Z,19.2
2017-07-21T01:46:26.183Z,19.2
2017-07-21T01:46:36.173Z,19.2
2017-07-21T01:46:46.169Z,19.2
2017-07-21T01:46:56.162Z,19.2
2017-07-21T01:47:06.158Z,19.2
2017-07-21T01:47:16.154Z,19.2
2017-07-21T01:47:26.145Z,19.2
2017-07-21T01:47:36.147Z,19.1
2017-07-21T01:47:46.141Z,19.1
2017-07-21T01:47:56.130Z,19.2
2017-07-21T01:48:06.131Z,19.1
2017-07-21T01:48:16.122Z,19.1
2017-07-21T01:48:26.115Z,19.2
2017-07-21T01:48:36.114Z,19.2
2017-07-21T01:48:46.108Z,19.2
2017-07-21T01:48:56.100Z,19.1
2017-07-21T01:49:06.099Z,19.3
2017-07-21T01:49:16.093Z,19.1
2017-07-21T01:49:26.086Z,19.2
2017-07-21T01:49:36.084Z,19.2
2017-07-21T01:49:46.078Z,19.2
2017-07-21T01:49:56.071Z,19.2
2017-07-21T01:50:06.064Z,19.2
2017-07-21T01:50:16.059Z,19.2
2017-07-21T01:50:26.060Z,19.2
2017-07-21T01:50:36.053Z,19.2
2017-07-21T01:50:46.047Z,19.2
2017-07-21T01:50:56.042Z,19.3
2017-07-21T01:51:06.043Z,19.2
2017-07-21T01:51:16.036Z,19.2
2017-07-21T01:51:26.030Z,19.1
2017-07-21T01:51:36.025Z,19.2
2017-07-21T01:51:46.015Z,19.1
2017-07-21T01:51:56.013Z,19.1
2017-07-21T01:52:06.009Z,19.1
2017-07-21T01:52:16.002Z,19.2
2017-07-21T01:52:26.000Z,19.1
2017-07-21T01:52:35.993Z,19.2
2017-07-21T01:52:45.985Z,19.2
2017-07-21T01:52:55.982Z,19.1
2017-07-21T01:53:05.977Z,19.1
2017-07-21T01:53:15.969Z,19.1
2017-07-21T01:53:25.967Z,19.1
2017-07-21T01:53:35.963Z,19.1
2017-07-21T01:53:45.957Z,19.1
2017-07-21T01:53:55.955Z,19.2
2017-07-21T01:54:05.949Z,19.1
2017-07-21T01:54:15.943Z,19.1
2017-07-21T01:54:25.936Z,19.1
2017-07-21T01:54:35.931Z,19.2
2017-07-21T01:54:45.929Z,19.1
2017-07-21T01:54:55.925Z,19.2
2017-07-21T01:55:05.920Z,19.1
2017-07-21T01:55:15.913Z,19.1
2017-07-21T01:55:25.905Z,19.2
2017-07-21T01:55:35.899Z,19.2
2017-07-21T01:55:45.894Z,19.1
2017-07-21T01:55:55.889Z,19.2
2017-07-21T01:56:05.888Z,19.1
2017-07-21T01:56:15.879Z,19
2017-07-21T01:56:25.880Z,19
2017-07-21T01:56:35.870Z,19
2017-07-21T01:56:45.869Z,19
2017-07-21T01:56:55.858Z,19
2017-07-21T01:57:05.857Z,19
2017-07-21T01:57:15.852Z,19
2017-07-21T01:57:25.844Z,19
2017-07-21T01:57:35.845Z,19
2017-07-21T01:57:45.839Z,19
2017-07-21T01:57:55.833Z,19
2017-07-21T01:58:05.851Z,19
2017-07-21T01:58:15.819Z,19
2017-07-21T01:58:25.814Z,19
2017-07-21T01:58:35.812Z,19
2017-07-21T01:58:45.805Z,19.1
2017-07-21T01:58:55.805Z,19
2017-07-21T01:59:05.796Z,19.1
2017-07-21T01:59:15.796Z,19
2017-07-21T01:59:25.787Z,19.1
2017-07-21T01:59:35.782Z,19
2017-07-21T01:59:45.780Z,19
2017-07-21T01:59:55.772Z,19.1
2017-07-21T02:00:05.767Z,19.1
2017-07-21T02:00:15.761Z,18.9
2017-07-21T02:00:25.757Z,19
2017-07-21T02:00:35.750Z,19
2017-07-21T02:00:45.748Z,18.9
2017-07-21T02:00:55.743Z,19
2017-07-21T02:01:05.737Z,19
2017-07-21T02:01:15.735Z,19
2017-07-21T02:01:25.727Z,19
2017-07-21T02:01:35.721Z,19
2017-07-21T02:01:45.715Z,19
2017-07-21T02:01:55.714Z,18.9
2017-07-21T02:02:05.706Z,19
2017-07-21T02:02:15.701Z,19
2017-07-21T02:02:25.694Z,19
2017-07-21T02:02:35.689Z,18.9
2017-07-21T02:02:45.686Z,19
2017-07-21T02:02:55.685Z,19
2017-07-21T02:03:05.677Z,19
2017-07-21T02:03:15.675Z,19
2017-07-21T02:03:25.666Z,19
2017-07-21T02:03:35.658Z,19
2017-07-21T02:03:45.657Z,19
2017-07-21T02:03:55.652Z,18.9
2017-07-21T02:04:05.645Z,19
2017-07-21T02:04:15.639Z,18.9
2017-07-21T02:04:25.637Z,19
2017-07-21T02:04:35.632Z,19
2017-07-21T02:04:45.627Z,18.9
2017-07-21T02:04:55.624Z,19
2017-07-21T02:05:05.617Z,19
2017-07-21T02:05:15.614Z,19
2017-07-21T02:05:25.608Z,18.8
2017-07-21T02:05:35.597Z,18.9
2017-07-21T02:05:45.598Z,18.9
2017-07-21T02:05:55.592Z,18.9
2017-07-21T02:06:05.586Z,18.9
2017-07-21T02:06:15.578Z,18.9
2017-07-21T02:06:25.576Z,18.9
2017-07-21T02:06:35.570Z,18.9
2017-07-21T02:06:45.565Z,18.9
2017-07-21T02:06:55.561Z,19
2017-07-21T02:07:05.556Z,18.9
2017-07-21T02:07:15.549Z,18.9
2017-07-21T02:07:25.548Z,18.9
2017-07-21T02:07:35.544Z,18.9
2017-07-21T02:07:45.538Z,19
2017-07-21T02:07:55.530Z,18.9
2017-07-21T02:08:05.526Z,18.9
2017-07-21T02:08:15.521Z,18.9
2017-07-21T02:08:25.517Z,18.9
2017-07-21T02:08:35.519Z,18.9
2017-07-21T02:08:45.504Z,18.9
2017-07-21T02:08:55.499Z,18.9
2017-07-21T02:09:05.497Z,18.9
2017-07-21T02:09:15.492Z,19
2017-07-21T02:09:25.483Z,18.8
2017-07-21T02:09:35.484Z,18.9
2017-07-21T02:09:45.472Z,18.9
2017-07-21T02:09:55.471Z,18.9
2017-07-21T02:10:05.462Z,18.9
2017-07-21T02:10:15.462Z,19
2017-07-21T02:10:25.458Z,19
2017-07-21T02:10:35.455Z,18.9
2017-07-21T02:10:45.443Z,19
2017-07-21T02:10:55.443Z,18.9
2017-07-21T02:11:05.436Z,18.9
2017-07-21T02:11:15.428Z,19
2017-07-21T02:11:25.425Z,18.9
2017-07-21T02:11:35.423Z,18.9
2017-07-21T02:11:45.415Z,18.9
2017-07-21T02:11:55.413Z,18.9
2017-07-21T02:12:05.404Z,18.9
2017-07-21T02:12:15.400Z,19
2017-07-21T02:12:25.392Z,18.9
2017-07-21T02:12:35.390Z,18.9
2017-07-21T02:12:45.387Z,18.9
2017-07-21T02:12:55.378Z,18.8
2017-07-21T02:13:05.378Z,18.9
2017-07-21T02:13:15.374Z,18.9
2017-07-21T02:13:25.366Z,18.9
2017-07-21T02:13:35.360Z,18.9
2017-07-21T02:13:45.358Z,18.9
2017-07-21T02:13:55.351Z,18.8